sensor_id;sensor_type;location;lat;lon;timestamp;temperature;humidity
18906;DHT22;9585;51.018;4.282;2022-12-10T00:00:36;-1.60;99.90
18906;DHT22;9585;51.018;4.282;2022-12-10T00:03:04;-1.70;99.90
18906;DHT22;9585;51.018;4.282;2022-12-10T00:05:33;-1.70;99.90
18906;DHT22;9585;51.018;4.282;2022-12-10T00:08:01;-1.70;99.90
18906;DHT22;9585;51.018;4.282;2022-12-10T00:10:28;-1.80;99.90
18906;DHT22;9585;51.018;4.282;2022-12-10T00:12:55;-1.80;99.90
18906;DHT22;9585;51.018;4.282;2022-12-10T00:15:24;-1.70;99.90
18906;DHT22;9585;51.018;4.282;2022-12-10T00:17:52;-1.70;99.90
18906;DHT22;9585;51.018;4.282;2022-12-10T00:20:19;-1.70;99.90
18906;DHT22;9585;51.018;4.282;2022-12-10T00:22:46;-1.60;99.90
18906;DHT22;9585;51.018;4.282;2022-12-10T00:25:13;-1.60;99.90
18906;DHT22;9585;51.018;4.282;2022-12-10T00:27:41;-1.70;99.90
18906;DHT22;9585;51.018;4.282;2022-12-10T00:30:09;-1.70;99.90
18906;DHT22;9585;51.018;4.282;2022-12-10T00:32:37;-1.60;99.90
18906;DHT22;9585;51.018;4.282;2022-12-10T00:35:05;-1.60;99.90
18906;DHT22;9585;51.018;4.282;2022-12-10T00:37:33;-1.60;99.90
18906;DHT22;9585;51.018;4.282;2022-12-10T00:40:00;-1.60;99.90
18906;DHT22;9585;51.018;4.282;2022-12-10T00:42:27;-1.60;99.90
18906;DHT22;9585;51.018;4.282;2022-12-10T00:44:55;-1.60;99.90
18906;DHT22;9585;51.018;4.282;2022-12-10T00:47:22;-1.60;99.90
18906;DHT22;9585;51.018;4.282;2022-12-10T00:49:50;-1.70;99.90
18906;DHT22;9585;51.018;4.282;2022-12-10T00:52:17;-1.70;99.90
18906;DHT22;9585;51.018;4.282;2022-12-10T00:54:45;-1.80;99.90
18906;DHT22;9585;51.018;4.282;2022-12-10T00:57:12;-1.80;99.90
18906;DHT22;9585;51.018;4.282;2022-12-10T00:59:39;-1.80;99.90
18906;DHT22;9585;51.018;4.282;2022-12-10T01:02:06;-1.80;99.90
18906;DHT22;9585;51.018;4.282;2022-12-10T01:04:33;-1.80;99.90
18906;DHT22;9585;51.018;4.282;2022-12-10T01:07:02;-1.90;99.90
18906;DHT22;9585;51.018;4.282;2022-12-10T01:09:30;-1.90;99.90
18906;DHT22;9585;51.018;4.282;2022-12-10T01:12:01;-1.90;99.90
18906;DHT22;9585;51.018;4.282;2022-12-10T01:14:31;-2.00;99.90
18906;DHT22;9585;51.018;4.282;2022-12-10T01:17:01;-2.00;99.90
18906;DHT22;9585;51.018;4.282;2022-12-10T01:19:29;-2.00;99.90
18906;DHT22;9585;51.018;4.282;2022-12-10T01:21:57;-2.00;99.90
18906;DHT22;9585;51.018;4.282;2022-12-10T01:24:28;-2.00;99.90
18906;DHT22;9585;51.018;4.282;2022-12-10T01:26:55;-1.90;99.90
18906;DHT22;9585;51.018;4.282;2022-12-10T01:29:23;-1.80;99.90
18906;DHT22;9585;51.018;4.282;2022-12-10T01:31:52;-1.70;99.90
18906;DHT22;9585;51.018;4.282;2022-12-10T01:34:19;-1.80;99.90
18906;DHT22;9585;51.018;4.282;2022-12-10T01:36:52;-1.90;99.90
18906;DHT22;9585;51.018;4.282;2022-12-10T01:39:21;-1.90;99.90
18906;DHT22;9585;51.018;4.282;2022-12-10T01:41:52;-2.00;99.90
18906;DHT22;9585;51.018;4.282;2022-12-10T01:47:23;-1.90;99.90
18906;DHT22;9585;51.018;4.282;2022-12-10T01:49:51;-1.80;99.90
18906;DHT22;9585;51.018;4.282;2022-12-10T01:52:18;-1.80;99.90
18906;DHT22;9585;51.018;4.282;2022-12-10T01:54:46;-1.80;99.90
18906;DHT22;9585;51.018;4.282;2022-12-10T01:57:17;-1.80;99.90
18906;DHT22;9585;51.018;4.282;2022-12-10T01:59:48;-1.90;99.90
18906;DHT22;9585;51.018;4.282;2022-12-10T02:02:23;-1.90;99.90
18906;DHT22;9585;51.018;4.282;2022-12-10T02:05:07;-1.90;99.90
18906;DHT22;9585;51.018;4.282;2022-12-10T02:07:44;-1.90;99.90
18906;DHT22;9585;51.018;4.282;2022-12-10T02:10:23;-1.80;99.90
18906;DHT22;9585;51.018;4.282;2022-12-10T02:12:56;-1.80;99.90
18906;DHT22;9585;51.018;4.282;2022-12-10T02:15:27;-1.90;99.90
18906;DHT22;9585;51.018;4.282;2022-12-10T02:17:57;-1.80;99.90
18906;DHT22;9585;51.018;4.282;2022-12-10T02:20:30;-1.70;99.90
18906;DHT22;9585;51.018;4.282;2022-12-10T02:23:03;-1.70;99.90
18906;DHT22;9585;51.018;4.282;2022-12-10T02:25:36;-1.70;99.90
18906;DHT22;9585;51.018;4.282;2022-12-10T02:28:13;-1.70;99.90
18906;DHT22;9585;51.018;4.282;2022-12-10T02:30:42;-1.70;99.90
18906;DHT22;9585;51.018;4.282;2022-12-10T02:33:12;-1.80;99.90
18906;DHT22;9585;51.018;4.282;2022-12-10T02:35:41;-1.80;99.90
18906;DHT22;9585;51.018;4.282;2022-12-10T02:38:11;-1.80;99.90
18906;DHT22;9585;51.018;4.282;2022-12-10T02:40:43;-1.80;99.90
18906;DHT22;9585;51.018;4.282;2022-12-10T02:43:12;-1.80;99.90
18906;DHT22;9585;51.018;4.282;2022-12-10T02:45:43;-1.80;99.90
18906;DHT22;9585;51.018;4.282;2022-12-10T02:48:11;-1.80;99.90
18906;DHT22;9585;51.018;4.282;2022-12-10T02:50:38;-1.80;99.90
18906;DHT22;9585;51.018;4.282;2022-12-10T02:53:06;-1.80;99.90
18906;DHT22;9585;51.018;4.282;2022-12-10T02:55:43;-1.90;99.90
18906;DHT22;9585;51.018;4.282;2022-12-10T02:58:23;-2.00;99.90
18906;DHT22;9585;51.018;4.282;2022-12-10T03:01:01;-2.00;99.90
18906;DHT22;9585;51.018;4.282;2022-12-10T03:03:39;-2.00;99.90
18906;DHT22;9585;51.018;4.282;2022-12-10T03:06:14;-2.00;99.90
18906;DHT22;9585;51.018;4.282;2022-12-10T03:08:47;-2.00;99.90
18906;DHT22;9585;51.018;4.282;2022-12-10T03:11:17;-2.10;99.90
18906;DHT22;9585;51.018;4.282;2022-12-10T03:13:53;-2.00;99.90
18906;DHT22;9585;51.018;4.282;2022-12-10T03:16:24;-2.10;99.90
18906;DHT22;9585;51.018;4.282;2022-12-10T03:18:57;-2.10;99.90
18906;DHT22;9585;51.018;4.282;2022-12-10T03:21:26;-2.10;99.90
18906;DHT22;9585;51.018;4.282;2022-12-10T03:23:55;-2.10;99.90
18906;DHT22;9585;51.018;4.282;2022-12-10T03:26:22;-2.10;99.90
18906;DHT22;9585;51.018;4.282;2022-12-10T03:28:52;-2.10;99.90
18906;DHT22;9585;51.018;4.282;2022-12-10T03:31:23;-2.00;99.90
18906;DHT22;9585;51.018;4.282;2022-12-10T03:33:52;-2.00;99.90
18906;DHT22;9585;51.018;4.282;2022-12-10T03:36:20;-1.90;99.90
18906;DHT22;9585;51.018;4.282;2022-12-10T03:38:48;-1.90;99.90
18906;DHT22;9585;51.018;4.282;2022-12-10T03:41:16;-1.90;99.90
18906;DHT22;9585;51.018;4.282;2022-12-10T03:43:50;-1.90;99.90
18906;DHT22;9585;51.018;4.282;2022-12-10T03:46:18;-1.90;99.90
18906;DHT22;9585;51.018;4.282;2022-12-10T03:48:47;-1.90;99.90
18906;DHT22;9585;51.018;4.282;2022-12-10T03:51:14;-2.00;99.90
18906;DHT22;9585;51.018;4.282;2022-12-10T03:53:42;-2.00;99.90
18906;DHT22;9585;51.018;4.282;2022-12-10T03:56:10;-2.00;99.90
18906;DHT22;9585;51.018;4.282;2022-12-10T03:58:37;-2.00;99.90
18906;DHT22;9585;51.018;4.282;2022-12-10T04:01:04;-2.00;99.90
18906;DHT22;9585;51.018;4.282;2022-12-10T04:03:34;-2.10;99.90
18906;DHT22;9585;51.018;4.282;2022-12-10T04:06:06;-2.20;99.90
18906;DHT22;9585;51.018;4.282;2022-12-10T04:08:33;-2.10;99.90
18906;DHT22;9585;51.018;4.282;2022-12-10T04:11:04;-2.10;99.90
18906;DHT22;9585;51.018;4.282;2022-12-10T04:13:32;-2.10;99.90
18906;DHT22;9585;51.018;4.282;2022-12-10T04:16:26;-2.10;99.90
18906;DHT22;9585;51.018;4.282;2022-12-10T04:18:56;-2.10;99.90
18906;DHT22;9585;51.018;4.282;2022-12-10T04:21:25;-2.10;99.90
18906;DHT22;9585;51.018;4.282;2022-12-10T04:24:11;-2.00;99.90
18906;DHT22;9585;51.018;4.282;2022-12-10T04:26:59;-2.00;99.90
18906;DHT22;9585;51.018;4.282;2022-12-10T04:29:29;-2.00;99.90
18906;DHT22;9585;51.018;4.282;2022-12-10T04:31:57;-2.00;99.90
18906;DHT22;9585;51.018;4.282;2022-12-10T04:34:25;-1.90;99.90
18906;DHT22;9585;51.018;4.282;2022-12-10T04:36:54;-2.00;99.90
18906;DHT22;9585;51.018;4.282;2022-12-10T04:39:21;-2.00;99.90
18906;DHT22;9585;51.018;4.282;2022-12-10T04:41:49;-1.90;99.90
18906;DHT22;9585;51.018;4.282;2022-12-10T04:44:17;-1.90;99.90
18906;DHT22;9585;51.018;4.282;2022-12-10T04:46:45;-1.90;99.90
18906;DHT22;9585;51.018;4.282;2022-12-10T04:49:13;-1.90;99.90
18906;DHT22;9585;51.018;4.282;2022-12-10T04:51:41;-1.90;99.90
18906;DHT22;9585;51.018;4.282;2022-12-10T04:54:10;-1.80;99.90
18906;DHT22;9585;51.018;4.282;2022-12-10T04:56:37;-1.90;99.90
18906;DHT22;9585;51.018;4.282;2022-12-10T04:59:06;-1.90;99.90
18906;DHT22;9585;51.018;4.282;2022-12-10T05:01:34;-1.90;99.90
18906;DHT22;9585;51.018;4.282;2022-12-10T05:04:03;-1.90;99.90
18906;DHT22;9585;51.018;4.282;2022-12-10T05:06:31;-1.90;99.90
18906;DHT22;9585;51.018;4.282;2022-12-10T05:08:58;-1.90;99.90
18906;DHT22;9585;51.018;4.282;2022-12-10T05:11:29;-1.90;99.90
18906;DHT22;9585;51.018;4.282;2022-12-10T05:13:58;-1.90;99.90
18906;DHT22;9585;51.018;4.282;2022-12-10T05:16:28;-2.00;99.90
18906;DHT22;9585;51.018;4.282;2022-12-10T05:18:56;-2.00;99.90
18906;DHT22;9585;51.018;4.282;2022-12-10T05:21:24;-2.00;99.90
18906;DHT22;9585;51.018;4.282;2022-12-10T05:24:12;-2.00;99.90
18906;DHT22;9585;51.018;4.282;2022-12-10T05:26:40;-2.00;99.90
18906;DHT22;9585;51.018;4.282;2022-12-10T05:29:07;-2.00;99.90
18906;DHT22;9585;51.018;4.282;2022-12-10T05:31:35;-2.00;99.90
18906;DHT22;9585;51.018;4.282;2022-12-10T05:34:03;-1.90;99.90
18906;DHT22;9585;51.018;4.282;2022-12-10T05:36:31;-1.90;99.90
18906;DHT22;9585;51.018;4.282;2022-12-10T05:38:58;-1.90;99.90
18906;DHT22;9585;51.018;4.282;2022-12-10T05:41:28;-1.90;99.90
18906;DHT22;9585;51.018;4.282;2022-12-10T05:43:57;-1.90;99.90
18906;DHT22;9585;51.018;4.282;2022-12-10T05:46:27;-1.90;99.90
18906;DHT22;9585;51.018;4.282;2022-12-10T05:48:56;-1.90;99.90
18906;DHT22;9585;51.018;4.282;2022-12-10T05:51:25;-1.90;99.90
18906;DHT22;9585;51.018;4.282;2022-12-10T05:53:53;-1.90;99.90
18906;DHT22;9585;51.018;4.282;2022-12-10T05:56:23;-1.90;99.90
18906;DHT22;9585;51.018;4.282;2022-12-10T05:58:52;-1.90;99.90
18906;DHT22;9585;51.018;4.282;2022-12-10T06:01:23;-1.90;99.90
18906;DHT22;9585;51.018;4.282;2022-12-10T06:03:50;-1.90;99.90
18906;DHT22;9585;51.018;4.282;2022-12-10T06:06:21;-1.90;99.90
18906;DHT22;9585;51.018;4.282;2022-12-10T06:08:49;-1.80;99.90
18906;DHT22;9585;51.018;4.282;2022-12-10T06:11:16;-1.80;99.90
18906;DHT22;9585;51.018;4.282;2022-12-10T06:13:44;-1.80;99.90
18906;DHT22;9585;51.018;4.282;2022-12-10T06:16:12;-1.80;99.90
18906;DHT22;9585;51.018;4.282;2022-12-10T06:18:42;-1.70;99.90
18906;DHT22;9585;51.018;4.282;2022-12-10T06:21:11;-1.70;99.90
18906;DHT22;9585;51.018;4.282;2022-12-10T06:23:39;-1.70;99.90
18906;DHT22;9585;51.018;4.282;2022-12-10T06:26:09;-1.70;99.90
18906;DHT22;9585;51.018;4.282;2022-12-10T06:28:36;-1.80;99.90
18906;DHT22;9585;51.018;4.282;2022-12-10T06:31:04;-1.70;99.90
18906;DHT22;9585;51.018;4.282;2022-12-10T06:33:32;-1.70;99.90
18906;DHT22;9585;51.018;4.282;2022-12-10T06:36:03;-1.70;99.90
18906;DHT22;9585;51.018;4.282;2022-12-10T06:38:31;-1.70;99.90
18906;DHT22;9585;51.018;4.282;2022-12-10T06:40:59;-1.80;99.90
18906;DHT22;9585;51.018;4.282;2022-12-10T06:43:28;-1.80;99.90
18906;DHT22;9585;51.018;4.282;2022-12-10T06:45:56;-1.80;99.90
18906;DHT22;9585;51.018;4.282;2022-12-10T06:48:23;-1.80;99.90
18906;DHT22;9585;51.018;4.282;2022-12-10T06:50:50;-1.80;99.90
18906;DHT22;9585;51.018;4.282;2022-12-10T06:53:19;-1.80;99.90
18906;DHT22;9585;51.018;4.282;2022-12-10T06:55:47;-1.80;99.90
18906;DHT22;9585;51.018;4.282;2022-12-10T06:58:14;-1.80;99.90
18906;DHT22;9585;51.018;4.282;2022-12-10T07:00:41;-1.80;99.90
18906;DHT22;9585;51.018;4.282;2022-12-10T07:03:08;-1.70;99.90
18906;DHT22;9585;51.018;4.282;2022-12-10T07:05:35;-1.70;99.90
18906;DHT22;9585;51.018;4.282;2022-12-10T07:08:03;-1.70;99.90
18906;DHT22;9585;51.018;4.282;2022-12-10T07:10:32;-1.70;99.90
18906;DHT22;9585;51.018;4.282;2022-12-10T07:12:59;-1.70;99.90
18906;DHT22;9585;51.018;4.282;2022-12-10T07:15:26;-1.60;99.90
18906;DHT22;9585;51.018;4.282;2022-12-10T07:17:54;-1.60;99.90
18906;DHT22;9585;51.018;4.282;2022-12-10T07:20:21;-1.60;99.90
18906;DHT22;9585;51.018;4.282;2022-12-10T07:22:48;-1.70;99.90
18906;DHT22;9585;51.018;4.282;2022-12-10T07:25:15;-1.70;99.90
18906;DHT22;9585;51.018;4.282;2022-12-10T07:27:44;-1.80;99.90
18906;DHT22;9585;51.018;4.282;2022-12-10T07:30:12;-1.80;99.90
18906;DHT22;9585;51.018;4.282;2022-12-10T07:32:39;-1.80;99.90
18906;DHT22;9585;51.018;4.282;2022-12-10T07:35:07;-1.80;99.90
18906;DHT22;9585;51.018;4.282;2022-12-10T07:37:34;-1.80;99.90
18906;DHT22;9585;51.018;4.282;2022-12-10T07:40:02;-1.80;99.90
18906;DHT22;9585;51.018;4.282;2022-12-10T07:42:29;-1.80;99.90
18906;DHT22;9585;51.018;4.282;2022-12-10T07:44:58;-1.80;99.90
18906;DHT22;9585;51.018;4.282;2022-12-10T07:47:25;-1.70;99.90
18906;DHT22;9585;51.018;4.282;2022-12-10T07:49:53;-1.70;99.90
18906;DHT22;9585;51.018;4.282;2022-12-10T07:52:20;-1.60;99.90
18906;DHT22;9585;51.018;4.282;2022-12-10T07:54:47;-1.60;99.90
18906;DHT22;9585;51.018;4.282;2022-12-10T07:57:15;-1.60;99.90
18906;DHT22;9585;51.018;4.282;2022-12-10T07:59:42;-1.60;99.90
18906;DHT22;9585;51.018;4.282;2022-12-10T08:02:11;-1.60;99.90
18906;DHT22;9585;51.018;4.282;2022-12-10T08:04:38;-1.60;99.90
18906;DHT22;9585;51.018;4.282;2022-12-10T08:07:05;-1.50;99.90
18906;DHT22;9585;51.018;4.282;2022-12-10T08:09:33;-1.50;99.90
18906;DHT22;9585;51.018;4.282;2022-12-10T08:12:00;-1.50;99.90
18906;DHT22;9585;51.018;4.282;2022-12-10T08:14:28;-1.50;99.90
18906;DHT22;9585;51.018;4.282;2022-12-10T08:16:56;-1.60;99.90
18906;DHT22;9585;51.018;4.282;2022-12-10T08:19:24;-1.50;99.90
18906;DHT22;9585;51.018;4.282;2022-12-10T08:21:51;-1.50;99.90
18906;DHT22;9585;51.018;4.282;2022-12-10T08:24:19;-1.50;99.90
18906;DHT22;9585;51.018;4.282;2022-12-10T08:26:46;-1.50;99.90
18906;DHT22;9585;51.018;4.282;2022-12-10T08:29:13;-1.50;99.90
18906;DHT22;9585;51.018;4.282;2022-12-10T08:31:40;-1.40;99.90
18906;DHT22;9585;51.018;4.282;2022-12-10T08:34:12;-1.40;99.90
18906;DHT22;9585;51.018;4.282;2022-12-10T08:36:41;-1.40;99.90
18906;DHT22;9585;51.018;4.282;2022-12-10T08:39:08;-1.40;99.90
18906;DHT22;9585;51.018;4.282;2022-12-10T08:41:41;-1.40;99.90
18906;DHT22;9585;51.018;4.282;2022-12-10T08:44:08;-1.30;99.90
18906;DHT22;9585;51.018;4.282;2022-12-10T08:46:35;-1.40;99.90
18906;DHT22;9585;51.018;4.282;2022-12-10T08:49:03;-1.30;99.90
18906;DHT22;9585;51.018;4.282;2022-12-10T08:51:30;-1.30;99.90
18906;DHT22;9585;51.018;4.282;2022-12-10T08:53:58;-1.20;99.90
18906;DHT22;9585;51.018;4.282;2022-12-10T08:56:26;-1.20;99.90
18906;DHT22;9585;51.018;4.282;2022-12-10T08:58:53;-1.30;99.90
18906;DHT22;9585;51.018;4.282;2022-12-10T09:01:20;-1.40;99.90
18906;DHT22;9585;51.018;4.282;2022-12-10T09:03:48;-1.40;99.90
18906;DHT22;9585;51.018;4.282;2022-12-10T09:06:17;-1.30;99.90
18906;DHT22;9585;51.018;4.282;2022-12-10T09:08:47;-1.40;99.90
18906;DHT22;9585;51.018;4.282;2022-12-10T09:11:18;-1.40;99.90
18906;DHT22;9585;51.018;4.282;2022-12-10T09:13:46;-1.30;99.90
18906;DHT22;9585;51.018;4.282;2022-12-10T09:16:13;-1.30;99.90
18906;DHT22;9585;51.018;4.282;2022-12-10T09:18:40;-1.30;99.90
18906;DHT22;9585;51.018;4.282;2022-12-10T09:21:09;-1.30;99.90
18906;DHT22;9585;51.018;4.282;2022-12-10T09:23:38;-1.20;99.90
18906;DHT22;9585;51.018;4.282;2022-12-10T09:26:13;-1.20;99.90
18906;DHT22;9585;51.018;4.282;2022-12-10T09:28:46;-1.10;99.90
18906;DHT22;9585;51.018;4.282;2022-12-10T09:31:18;-1.10;99.90
18906;DHT22;9585;51.018;4.282;2022-12-10T09:33:47;-1.10;99.90
18906;DHT22;9585;51.018;4.282;2022-12-10T09:36:14;-1.10;99.90
18906;DHT22;9585;51.018;4.282;2022-12-10T09:38:43;-1.20;99.90
18906;DHT22;9585;51.018;4.282;2022-12-10T09:44:11;-1.20;99.90
18906;DHT22;9585;51.018;4.282;2022-12-10T09:46:47;-1.10;99.90
18906;DHT22;9585;51.018;4.282;2022-12-10T09:49:24;-1.00;99.90
18906;DHT22;9585;51.018;4.282;2022-12-10T09:51:58;-0.90;99.90
18906;DHT22;9585;51.018;4.282;2022-12-10T09:54:33;-0.80;99.90
18906;DHT22;9585;51.018;4.282;2022-12-10T09:57:01;-0.80;99.90
18906;DHT22;9585;51.018;4.282;2022-12-10T09:59:36;-0.80;99.90
18906;DHT22;9585;51.018;4.282;2022-12-10T10:02:21;-0.80;99.90
18906;DHT22;9585;51.018;4.282;2022-12-10T10:04:49;-0.70;99.90
18906;DHT22;9585;51.018;4.282;2022-12-10T10:07:21;-0.70;99.90
18906;DHT22;9585;51.018;4.282;2022-12-10T10:09:55;-0.80;99.90
18906;DHT22;9585;51.018;4.282;2022-12-10T10:12:23;-0.70;99.90
18906;DHT22;9585;51.018;4.282;2022-12-10T10:14:54;-0.70;99.90
18906;DHT22;9585;51.018;4.282;2022-12-10T10:17:26;-0.60;99.90
18906;DHT22;9585;51.018;4.282;2022-12-10T10:19:54;-0.60;99.90
18906;DHT22;9585;51.018;4.282;2022-12-10T10:22:22;-0.50;99.90
18906;DHT22;9585;51.018;4.282;2022-12-10T10:24:51;-0.50;99.90
18906;DHT22;9585;51.018;4.282;2022-12-10T10:27:29;-0.50;99.90
18906;DHT22;9585;51.018;4.282;2022-12-10T10:30:00;-0.50;99.90
18906;DHT22;9585;51.018;4.282;2022-12-10T10:32:45;-0.30;99.90
18906;DHT22;9585;51.018;4.282;2022-12-10T10:35:22;-0.20;99.90
18906;DHT22;9585;51.018;4.282;2022-12-10T10:37:50;-0.20;99.90
18906;DHT22;9585;51.018;4.282;2022-12-10T10:40:29;-0.10;99.90
18906;DHT22;9585;51.018;4.282;2022-12-10T10:42:58;0.00;99.90
18906;DHT22;9585;51.018;4.282;2022-12-10T10:45:53;0.10;99.90
18906;DHT22;9585;51.018;4.282;2022-12-10T10:48:24;0.10;99.90
18906;DHT22;9585;51.018;4.282;2022-12-10T10:50:52;0.10;99.90
18906;DHT22;9585;51.018;4.282;2022-12-10T10:53:29;0.20;99.90
18906;DHT22;9585;51.018;4.282;2022-12-10T10:56:01;0.20;99.90
18906;DHT22;9585;51.018;4.282;2022-12-10T10:58:31;0.20;99.90
18906;DHT22;9585;51.018;4.282;2022-12-10T11:01:02;0.10;99.90
18906;DHT22;9585;51.018;4.282;2022-12-10T11:03:31;0.20;99.90
18906;DHT22;9585;51.018;4.282;2022-12-10T11:06:00;0.20;99.90
18906;DHT22;9585;51.018;4.282;2022-12-10T11:08:30;0.20;99.90
18906;DHT22;9585;51.018;4.282;2022-12-10T11:11:01;0.10;99.90
18906;DHT22;9585;51.018;4.282;2022-12-10T11:13:31;0.10;99.90
18906;DHT22;9585;51.018;4.282;2022-12-10T11:16:11;0.00;99.90
18906;DHT22;9585;51.018;4.282;2022-12-10T11:18:40;0.00;99.90
18906;DHT22;9585;51.018;4.282;2022-12-10T11:21:17;0.00;99.90
18906;DHT22;9585;51.018;4.282;2022-12-10T11:23:48;0.10;99.90
18906;DHT22;9585;51.018;4.282;2022-12-10T11:26:39;0.20;99.90
18906;DHT22;9585;51.018;4.282;2022-12-10T11:29:18;0.20;99.90
18906;DHT22;9585;51.018;4.282;2022-12-10T11:31:55;0.30;99.90
18906;DHT22;9585;51.018;4.282;2022-12-10T11:34:34;0.40;99.90
18906;DHT22;9585;51.018;4.282;2022-12-10T11:37:12;0.40;99.90
18906;DHT22;9585;51.018;4.282;2022-12-10T11:40:00;0.40;99.90
18906;DHT22;9585;51.018;4.282;2022-12-10T11:42:36;0.30;99.90
18906;DHT22;9585;51.018;4.282;2022-12-10T11:45:12;0.30;99.90
18906;DHT22;9585;51.018;4.282;2022-12-10T11:50:47;0.40;99.90
18906;DHT22;9585;51.018;4.282;2022-12-10T11:53:38;0.40;99.90
18906;DHT22;9585;51.018;4.282;2022-12-10T11:56:20;0.50;99.90
18906;DHT22;9585;51.018;4.282;2022-12-10T11:59:01;0.50;99.90
18906;DHT22;9585;51.018;4.282;2022-12-10T12:01:40;0.60;99.90
18906;DHT22;9585;51.018;4.282;2022-12-10T12:04:31;0.60;99.90
18906;DHT22;9585;51.018;4.282;2022-12-10T12:07:20;0.60;99.90
18906;DHT22;9585;51.018;4.282;2022-12-10T12:10:07;0.50;99.90
18906;DHT22;9585;51.018;4.282;2022-12-10T12:12:47;0.50;99.90
18906;DHT22;9585;51.018;4.282;2022-12-10T12:15:23;0.50;99.90
18906;DHT22;9585;51.018;4.282;2022-12-10T12:17:56;0.50;99.90
18906;DHT22;9585;51.018;4.282;2022-12-10T12:20:29;0.40;99.90
18906;DHT22;9585;51.018;4.282;2022-12-10T12:23:03;0.50;99.90
18906;DHT22;9585;51.018;4.282;2022-12-10T12:25:36;0.60;99.90
18906;DHT22;9585;51.018;4.282;2022-12-10T12:28:08;0.50;99.90
18906;DHT22;9585;51.018;4.282;2022-12-10T12:30:37;0.40;99.90
18906;DHT22;9585;51.018;4.282;2022-12-10T12:33:10;0.50;99.90
18906;DHT22;9585;51.018;4.282;2022-12-10T12:35:41;0.50;99.90
18906;DHT22;9585;51.018;4.282;2022-12-10T12:38:26;0.40;99.90
18906;DHT22;9585;51.018;4.282;2022-12-10T12:40:58;0.50;99.90
18906;DHT22;9585;51.018;4.282;2022-12-10T12:43:35;0.40;99.90
18906;DHT22;9585;51.018;4.282;2022-12-10T12:46:12;0.50;99.90
18906;DHT22;9585;51.018;4.282;2022-12-10T12:48:50;0.50;99.90
18906;DHT22;9585;51.018;4.282;2022-12-10T12:51:37;0.50;99.90
18906;DHT22;9585;51.018;4.282;2022-12-10T12:54:07;0.50;99.90
18906;DHT22;9585;51.018;4.282;2022-12-10T12:56:59;0.50;99.90
18906;DHT22;9585;51.018;4.282;2022-12-10T12:59:44;0.60;99.90
18906;DHT22;9585;51.018;4.282;2022-12-10T13:02:32;0.70;99.90
18906;DHT22;9585;51.018;4.282;2022-12-10T13:05:08;0.80;99.90
18906;DHT22;9585;51.018;4.282;2022-12-10T13:07:40;0.80;99.90
18906;DHT22;9585;51.018;4.282;2022-12-10T13:10:27;0.80;99.90
18906;DHT22;9585;51.018;4.282;2022-12-10T13:13:22;0.80;99.90
18906;DHT22;9585;51.018;4.282;2022-12-10T13:15:52;0.90;99.90
18906;DHT22;9585;51.018;4.282;2022-12-10T13:21:28;0.80;99.90
18906;DHT22;9585;51.018;4.282;2022-12-10T13:24:10;0.80;99.90
18906;DHT22;9585;51.018;4.282;2022-12-10T13:27:01;0.80;99.90
18906;DHT22;9585;51.018;4.282;2022-12-10T13:29:29;0.80;99.90
18906;DHT22;9585;51.018;4.282;2022-12-10T13:32:15;0.80;99.90
18906;DHT22;9585;51.018;4.282;2022-12-10T13:34:42;0.70;99.90
18906;DHT22;9585;51.018;4.282;2022-12-10T13:37:18;0.80;99.90
18906;DHT22;9585;51.018;4.282;2022-12-10T13:40:02;0.70;99.90
18906;DHT22;9585;51.018;4.282;2022-12-10T13:42:36;0.70;99.90
18906;DHT22;9585;51.018;4.282;2022-12-10T13:45:28;0.80;99.90
18906;DHT22;9585;51.018;4.282;2022-12-10T13:51:18;0.90;99.90
18906;DHT22;9585;51.018;4.282;2022-12-10T13:53:59;0.80;99.90
18906;DHT22;9585;51.018;4.282;2022-12-10T13:56:30;0.80;99.90
18906;DHT22;9585;51.018;4.282;2022-12-10T13:59:22;0.80;99.90
18906;DHT22;9585;51.018;4.282;2022-12-10T14:02:00;0.80;99.90
18906;DHT22;9585;51.018;4.282;2022-12-10T14:04:51;0.70;99.90
18906;DHT22;9585;51.018;4.282;2022-12-10T14:07:21;0.80;99.90
18906;DHT22;9585;51.018;4.282;2022-12-10T14:09:52;0.80;99.90
18906;DHT22;9585;51.018;4.282;2022-12-10T14:12:25;0.80;99.90
18906;DHT22;9585;51.018;4.282;2022-12-10T14:14:58;0.80;99.90
18906;DHT22;9585;51.018;4.282;2022-12-10T14:17:32;0.90;99.90
18906;DHT22;9585;51.018;4.282;2022-12-10T14:20:00;0.90;99.90
18906;DHT22;9585;51.018;4.282;2022-12-10T14:22:31;0.90;99.90
18906;DHT22;9585;51.018;4.282;2022-12-10T14:25:01;0.90;99.90
18906;DHT22;9585;51.018;4.282;2022-12-10T14:27:30;0.80;99.90
18906;DHT22;9585;51.018;4.282;2022-12-10T14:30:04;0.80;99.90
18906;DHT22;9585;51.018;4.282;2022-12-10T14:32:35;0.80;99.90
18906;DHT22;9585;51.018;4.282;2022-12-10T14:35:05;0.80;99.90
18906;DHT22;9585;51.018;4.282;2022-12-10T14:37:36;0.80;99.90
18906;DHT22;9585;51.018;4.282;2022-12-10T14:40:05;0.70;99.90
18906;DHT22;9585;51.018;4.282;2022-12-10T14:42:34;0.70;99.90
18906;DHT22;9585;51.018;4.282;2022-12-10T14:45:05;0.70;99.90
18906;DHT22;9585;51.018;4.282;2022-12-10T14:47:42;0.70;99.90
18906;DHT22;9585;51.018;4.282;2022-12-10T14:50:16;0.70;99.90
18906;DHT22;9585;51.018;4.282;2022-12-10T14:52:45;0.70;99.90
18906;DHT22;9585;51.018;4.282;2022-12-10T14:55:18;0.70;99.90
18906;DHT22;9585;51.018;4.282;2022-12-10T14:57:50;0.70;99.90
18906;DHT22;9585;51.018;4.282;2022-12-10T15:00:22;0.70;99.90
18906;DHT22;9585;51.018;4.282;2022-12-10T15:02:53;0.70;99.90
18906;DHT22;9585;51.018;4.282;2022-12-10T15:05:25;0.70;99.90
18906;DHT22;9585;51.018;4.282;2022-12-10T15:07:55;0.70;99.90
18906;DHT22;9585;51.018;4.282;2022-12-10T15:10:25;0.80;99.90
18906;DHT22;9585;51.018;4.282;2022-12-10T15:12:53;0.80;99.90
18906;DHT22;9585;51.018;4.282;2022-12-10T15:15:26;0.80;99.90
18906;DHT22;9585;51.018;4.282;2022-12-10T15:17:58;0.80;99.90
18906;DHT22;9585;51.018;4.282;2022-12-10T15:20:29;0.80;99.90
18906;DHT22;9585;51.018;4.282;2022-12-10T15:23:11;0.80;99.90
18906;DHT22;9585;51.018;4.282;2022-12-10T15:25:45;0.90;99.90
18906;DHT22;9585;51.018;4.282;2022-12-10T15:28:24;0.80;99.90
18906;DHT22;9585;51.018;4.282;2022-12-10T15:30:56;0.80;99.90
18906;DHT22;9585;51.018;4.282;2022-12-10T15:33:30;0.80;99.90
18906;DHT22;9585;51.018;4.282;2022-12-10T15:35:59;0.80;99.90
18906;DHT22;9585;51.018;4.282;2022-12-10T15:38:27;0.80;99.90
18906;DHT22;9585;51.018;4.282;2022-12-10T15:41:00;0.80;99.90
18906;DHT22;9585;51.018;4.282;2022-12-10T15:43:29;0.80;99.90
18906;DHT22;9585;51.018;4.282;2022-12-10T15:45:58;0.80;99.90
18906;DHT22;9585;51.018;4.282;2022-12-10T15:48:28;0.90;99.90
18906;DHT22;9585;51.018;4.282;2022-12-10T15:50:56;0.80;99.90
18906;DHT22;9585;51.018;4.282;2022-12-10T15:53:34;0.80;99.90
18906;DHT22;9585;51.018;4.282;2022-12-10T15:56:01;0.80;99.90
18906;DHT22;9585;51.018;4.282;2022-12-10T15:58:29;0.80;99.90
18906;DHT22;9585;51.018;4.282;2022-12-10T16:00:59;0.90;99.90
18906;DHT22;9585;51.018;4.282;2022-12-10T16:03:28;0.90;99.90
18906;DHT22;9585;51.018;4.282;2022-12-10T16:05:55;0.90;99.90
18906;DHT22;9585;51.018;4.282;2022-12-10T16:08:24;0.90;99.90
18906;DHT22;9585;51.018;4.282;2022-12-10T16:10:55;0.90;99.90
18906;DHT22;9585;51.018;4.282;2022-12-10T16:13:25;0.90;99.90
18906;DHT22;9585;51.018;4.282;2022-12-10T16:15:56;0.80;99.90
18906;DHT22;9585;51.018;4.282;2022-12-10T16:18:26;0.90;99.90
18906;DHT22;9585;51.018;4.282;2022-12-10T16:20:53;0.90;99.90
18906;DHT22;9585;51.018;4.282;2022-12-10T16:23:20;0.90;99.90
18906;DHT22;9585;51.018;4.282;2022-12-10T16:25:48;0.90;99.90
18906;DHT22;9585;51.018;4.282;2022-12-10T16:28:17;0.90;99.90
18906;DHT22;9585;51.018;4.282;2022-12-10T16:30:46;1.00;99.90
18906;DHT22;9585;51.018;4.282;2022-12-10T16:33:15;1.00;99.90